Raiger Juan Segundo — EA3764 — position and weather

sailwx.info

Track history (hours):
 
Tides and Currents Weather Stations Pressure Air Temp Water Temp Dewpoint Dewpoint Depression Visibility Wind Speed Wind Dir Waves Ship Positions

Raiger Juan Segundo

Last reported at 2017-Oct-19 13:11 UTC. Time now 2017-Oct-20 08:54 UTC.
Position N 43°33' W 005°41'.

Length 16 m; draft 16.5 m.

Type: Fishing. MMSI: 224041990.

Date/timePositionNaut miles runAvg speedWind from/ knotsBaromVisibWave heightAir tempDewpointWater temp
2017-Oct-19 13:11N 43°33' W 005°41'1 7.6
2017-Oct-19 13:00N 43°35' W 005°40'4 7.4
2017-Oct-19 12:29N 43°37' W 005°37'1 1.2
2017-Oct-19 11:48N 43°38' W 005°36'0 1.2
2017-Oct-19 11:27N 43°38' W 005°35'1 1.1
2017-Oct-19 10:57N 43°38' W 005°34'1 1.1
2017-Oct-19 10:30N 43°38' W 005°34'1 1.1
2017-Oct-19 10:00N 43°38' W 005°33'0 0.8
2017-Oct-19 09:30N 43°38' W 005°33'1 1.1
2017-Oct-19 08:58N 43°38' W 005°33'0 1.0
2017-Oct-19 08:30N 43°39' W 005°33'4 7.0
2017-Oct-19 08:00N 43°39' W 005°38'3 6.8
2017-Oct-19 07:30N 43°40' W 005°42'1 1.2
2017-Oct-19 06:56N 43°40' W 005°41'1 3.3
2017-Oct-19 06:30N 43°40' W 005°39'1 2.8
2017-Oct-19 06:00N 43°39' W 005°37'1 1.1
2017-Oct-19 05:30N 43°39' W 005°37'1 1.0
2017-Oct-19 04:53N 43°39' W 005°36'0 0.4
2017-Oct-19 04:30N 43°39' W 005°36'1 1.3
2017-Oct-19 04:00N 43°39' W 005°35'1 1.3
2017-Oct-19 03:29N 43°39' W 005°34'  
Track history (hours):
 
Tides and Currents Weather Stations Pressure Air Temp Water Temp Dewpoint Dewpoint Depression Visibility Wind Speed Wind Dir Waves Ship Positions

Raiger Juan Segundo

Last reported at 2017-Oct-19 13:11 UTC. Time now 2017-Oct-20 08:54 UTC.
Position N 43°33' W 005°41'.

Length 16 m; draft 16.5 m.

Type: Fishing. MMSI: 224041990.

Date/timePositionNaut miles runAvg speedWind from/ knotsBaromVisibWave heightAir tempDewpointWater temp
2017-Oct-19 13:11N 43°33' W 005°41'1 7.6
2017-Oct-19 13:00N 43°35' W 005°40'4 7.4
2017-Oct-19 12:29N 43°37' W 005°37'1 1.2
2017-Oct-19 11:48N 43°38' W 005°36'0 1.2
2017-Oct-19 11:27N 43°38' W 005°35'1 1.1
2017-Oct-19 10:57N 43°38' W 005°34'1 1.1
2017-Oct-19 10:30N 43°38' W 005°34'1 1.1
2017-Oct-19 10:00N 43°38' W 005°33'0 0.8
2017-Oct-19 09:30N 43°38' W 005°33'1 1.1
2017-Oct-19 08:58N 43°38' W 005°33'0 1.0
2017-Oct-19 08:30N 43°39' W 005°33'4 7.0
2017-Oct-19 08:00N 43°39' W 005°38'3 6.8
2017-Oct-19 07:30N 43°40' W 005°42'1 1.2
2017-Oct-19 06:56N 43°40' W 005°41'1 3.3
2017-Oct-19 06:30N 43°40' W 005°39'1 2.8
2017-Oct-19 06:00N 43°39' W 005°37'1 1.1
2017-Oct-19 05:30N 43°39' W 005°37'1 1.0
2017-Oct-19 04:53N 43°39' W 005°36'0 0.4
2017-Oct-19 04:30N 43°39' W 005°36'1 1.3
2017-Oct-19 04:00N 43°39' W 005°35'1 1.3
2017-Oct-19 03:29N 43°39' W 005°34'  

Dump ship's entire track history